Terminal Aerodrome Forecast
Issued by NWS Bismarck, ND

Home | Current Version | Previous Version | Text Only | Print | Product List | Glossary Off
Versions: 1 2 3 4 5 6 7 8 9 10 11 12 13 14 15

384
FTUS43 KBIS 241409 AAC
TAFISN
TAF AMD
KISN 241409Z 2414/2512 07005KT 4SM BR SCT025
     FM241500 10004KT P6SM SCT025
     FM241700 12007KT P6SM SCT100
     FM242300 12011G19KT P6SM SCT100
     FM250600 14009KT P6SM BKN150
     FM251100 16009KT P6SM BKN150=

USA.gov is the U.S. government's official web portal to all federal, state and local government web resources and services.